KIWD/IWD METAR and TAF weather

Enter ICAO airport designator
Station Type Date Time Source
KIWD METAR 2020/07/12 03:56 UTC NOAA

KIWD 120356Z AUTO 00000KT 10SM FEW055 SCT070 14/14 A2993 RMK AO2 SLP134 T01440139


Station Type Date Time Source
KIWD Decoded METAR 2020/07/12 03:56 UTC NOAA

Ironwood, Gogebic-Iron County Airport, MI, United States (KIWD) 46-32N 090-08W
Jul 11, 2020 - 11:56 PM EDT / 2020.07.12 0356 UTC
Wind: Calm:0
Visibility: 10 mile(s):0
Sky conditions: partly cloudy
Temperature: 57.9 F (14.4 C)
Dew Point: 57.0 F (13.9 C)
Relative Humidity: 96%
Pressure (altimeter): 29.93 in. Hg (1013 hPa)
ob: KIWD 120356Z AUTO 00000KT 10SM FEW055 SCT070 14/14 A2993 RMK AO2 SLP134 T01440139
cycle: 4

Station Type Date Time Source
KIWD TAF 2020/07/11 18:40 UTC NOAA

TAF KIWD 111738Z 1118/1218 33007KT P6SM FEW040
FM112300 36005KT P6SM FEW150
FM120600 00000KT P6SM SCT045
FM121100 VRB03KT P6SM SCT030

Example: see airport list